Time;durP1;ratioP1;P1;durP2;ratioP2;P2;SDS_P1;SDS_P2;PMS_P1;PMS_P2;Temp;Humidity;BMP_temperature;BMP_pressure;BME280_temperature;BME280_humidity;BME280_pressure;Samples;Min_cycle;Max_cycle;Signal;HPM_P1;HPM_P2
2020/12/04 00:01:35;;;;;;;1.80;1.52;;;20.70;41.00;;;;;;5070714;28;20052;-65
2020/12/04 00:04:01;;;;;;;2.47;1.48;;;20.70;40.90;;;;;;5070521;28;20083;-65
2020/12/04 00:06:27;;;;;;;2.70;1.50;;;20.70;40.90;;;;;;5070568;28;20040;-63
2020/12/04 00:08:52;;;;;;;3.55;1.80;;;20.70;40.90;;;;;;5053478;28;20033;-65
2020/12/04 00:11:18;;;;;;;2.13;1.60;;;20.70;40.90;;;;;;5070670;28;20036;-65
2020/12/04 00:13:44;;;;;;;2.35;1.80;;;20.70;40.90;;;;;;5070700;28;20385;-66
2020/12/04 00:16:09;;;;;;;2.35;1.80;;;20.70;40.90;;;;;;5071156;28;20063;-65
2020/12/04 00:18:35;;;;;;;1.92;1.50;;;20.70;40.90;;;;;;5079749;28;20036;-66
2020/12/04 00:21:00;;;;;;;2.33;1.63;;;20.70;40.90;;;;;;5071092;28;20035;-65
2020/12/04 00:23:26;;;;;;;2.25;1.55;;;20.70;40.80;;;;;;5070134;28;20049;-65
2020/12/04 00:25:52;;;;;;;2.47;1.70;;;20.70;40.90;;;;;;5070712;28;20060;-65
2020/12/04 00:28:17;;;;;;;1.88;1.60;;;20.70;40.90;;;;;;5070900;28;20025;-65
2020/12/04 00:30:43;;;;;;;2.30;1.73;;;20.70;40.80;;;;;;5070242;28;20029;-65
2020/12/04 00:33:09;;;;;;;3.22;1.90;;;20.70;40.90;;;;;;5070720;28;20032;-63
2020/12/04 00:35:35;;;;;;;3.20;1.83;;;20.70;40.90;;;;;;5069694;28;20064;-64
2020/12/04 00:38:00;;;;;;;2.13;1.50;;;20.70;40.80;;;;;;5070776;28;20071;-63
2020/12/04 00:40:26;;;;;;;1.77;1.40;;;20.70;40.90;;;;;;5069868;28;20389;-64
2020/12/04 00:42:51;;;;;;;2.25;1.67;;;20.70;40.90;;;;;;5070657;28;20036;-65
2020/12/04 00:45:17;;;;;;;3.33;1.55;;;20.60;40.80;;;;;;5070434;28;20037;-65
2020/12/04 00:47:43;;;;;;;1.77;1.38;;;20.70;40.80;;;;;;5064635;28;20029;-65
2020/12/04 00:50:09;;;;;;;3.63;2.08;;;20.60;40.80;;;;;;5070375;28;20149;-65
2020/12/04 00:52:35;;;;;;;2.03;1.42;;;20.70;40.90;;;;;;5051631;28;20078;-64
2020/12/04 00:55:00;;;;;;;2.67;1.65;;;20.70;40.90;;;;;;5070891;28;20036;-65
2020/12/04 00:57:26;;;;;;;2.25;1.42;;;20.60;40.80;;;;;;5069456;28;20442;-63
2020/12/04 00:59:52;;;;;;;1.90;1.48;;;20.70;40.80;;;;;;5070597;28;20055;-63
2020/12/04 01:02:17;;;;;;;2.40;1.63;;;20.70;40.80;;;;;;5071032;28;20056;-65
2020/12/04 01:04:43;;;;;;;1.75;1.40;;;20.60;40.80;;;;;;5069639;28;20679;-64
2020/12/04 01:07:09;;;;;;;2.90;1.83;;;20.60;40.80;;;;;;5070359;28;20480;-64
2020/12/04 01:09:35;;;;;;;2.45;2.17;;;20.70;40.80;;;;;;5069446;28;20040;-64
2020/12/04 01:12:01;;;;;;;2.13;1.48;;;20.70;40.80;;;;;;5069974;28;20462;-64
2020/12/04 01:14:27;;;;;;;2.13;1.50;;;20.70;40.70;;;;;;5068872;28;20105;-64
2020/12/04 01:16:53;;;;;;;2.70;1.88;;;20.70;40.70;;;;;;5067427;28;20385;-64
2020/12/04 01:19:19;;;;;;;2.08;1.70;;;20.70;40.70;;;;;;5070125;28;20032;-63
2020/12/04 01:21:48;;;;;;;3.33;1.65;;;20.70;40.60;;;;;;5069611;28;20103;-64
2020/12/04 01:24:14;;;;;;;2.60;1.65;;;20.70;40.60;;;;;;5069640;28;20032;-64
2020/12/04 01:26:40;;;;;;;4.25;1.80;;;20.70;40.60;;;;;;5069364;28;20020;-64
2020/12/04 01:29:06;;;;;;;2.35;1.92;;;20.70;40.60;;;;;;5069791;28;20036;-61
2020/12/04 01:31:32;;;;;;;2.30;1.55;;;20.70;40.70;;;;;;5069059;28;20480;-64
2020/12/04 01:34:00;;;;;;;2.25;1.70;;;20.80;40.50;;;;;;5052088;28;20056;-64
2020/12/04 01:36:27;;;;;;;2.20;1.73;;;20.70;40.50;;;;;;5068999;28;20032;-65
2020/12/04 01:38:53;;;;;;;2.38;1.77;;;20.70;40.50;;;;;;5073379;28;20486;-65
2020/12/04 01:41:19;;;;;;;3.22;1.58;;;20.70;40.50;;;;;;5047937;28;20031;-65
2020/12/04 01:43:44;;;;;;;1.95;1.50;;;20.70;40.50;;;;;;5051246;28;20496;-62
2020/12/04 01:46:11;;;;;;;1.73;1.45;;;20.70;40.50;;;;;;5070014;28;20028;-63
2020/12/04 01:48:37;;;;;;;2.20;1.67;;;20.70;40.50;;;;;;5068995;28;20032;-64
2020/12/04 01:51:02;;;;;;;2.58;1.58;;;20.70;40.50;;;;;;5069758;28;20496;-64
2020/12/04 01:53:28;;;;;;;2.88;1.60;;;20.70;40.50;;;;;;5068782;28;20033;-64
2020/12/04 01:55:55;;;;;;;1.85;1.52;;;20.70;40.50;;;;;;5061491;28;20035;-64
2020/12/04 01:58:20;;;;;;;2.20;1.60;;;20.70;40.40;;;;;;5069800;28;20036;-58
2020/12/04 02:00:46;;;;;;;2.30;1.60;;;20.70;40.50;;;;;;5069462;28;20056;-64
2020/12/04 02:03:14;;;;;;;3.60;2.00;;;20.70;40.40;;;;;;5070479;28;20043;-64
2020/12/04 02:05:51;;;;;;;2.50;1.75;;;20.70;41.10;;;;;;5068978;28;20021;-65
2020/12/04 02:08:32;;;;;;;3.42;1.80;;;20.70;40.40;;;;;;5062616;28;20127;-64
2020/12/04 02:11:20;;;;;;;2.97;1.70;;;20.70;40.40;;;;;;5069276;28;20116;-64
2020/12/04 02:13:48;;;;;;;2.30;1.73;;;20.70;40.40;;;;;;5069009;28;20481;-64
2020/12/04 02:16:19;;;;;;;2.88;1.83;;;20.70;40.40;;;;;;5069368;28;20119;-63
2020/12/04 02:18:45;;;;;;;2.97;1.90;;;20.70;40.40;;;;;;5069489;28;20048;-64
2020/12/04 02:21:12;;;;;;;3.45;1.80;;;20.80;40.50;;;;;;5069020;28;20021;-64
2020/12/04 02:23:49;;;;;;;2.03;1.60;;;20.70;40.40;;;;;;5068863;28;20032;-64
2020/12/04 02:26:19;;;;;;;2.10;1.35;;;20.70;40.30;;;;;;5069229;28;20098;-64
2020/12/04 02:28:45;;;;;;;1.80;1.50;;;20.70;40.30;;;;;;5071340;28;20032;-64
2020/12/04 02:31:12;;;;;;;2.42;1.70;;;20.70;40.30;;;;;;5073288;28;20029;-64
2020/12/04 02:33:38;;;;;;;2.22;1.60;;;20.70;40.30;;;;;;5072210;28;20032;-65
2020/12/04 02:36:04;;;;;;;2.55;1.67;;;20.80;40.30;;;;;;5073073;28;20031;-64
2020/12/04 02:38:30;;;;;;;3.03;2.08;;;20.70;40.20;;;;;;5072706;28;20039;-64
2020/12/04 02:40:56;;;;;;;2.28;1.85;;;20.80;40.30;;;;;;5072837;28;20036;-65
2020/12/04 02:43:22;;;;;;;3.08;1.50;;;20.80;40.30;;;;;;5072801;28;20083;-56
2020/12/04 02:45:49;;;;;;;2.40;1.60;;;20.70;40.30;;;;;;5086830;28;20119;-64
2020/12/04 02:48:15;;;;;;;3.05;1.73;;;20.70;40.20;;;;;;5072620;28;20029;-63
2020/12/04 02:50:41;;;;;;;2.83;1.75;;;20.70;40.20;;;;;;5071759;28;20028;-63
2020/12/04 02:53:07;;;;;;;2.35;1.63;;;20.80;40.20;;;;;;5072379;28;20393;-64
2020/12/04 02:55:33;;;;;;;2.70;1.95;;;20.70;40.20;;;;;;5071807;28;20140;-64
2020/12/04 02:57:59;;;;;;;2.83;1.80;;;20.80;40.20;;;;;;5073208;28;20108;-64
2020/12/04 03:00:25;;;;;;;2.22;1.42;;;20.70;40.20;;;;;;5071781;28;20074;-63
2020/12/04 03:02:51;;;;;;;1.95;1.60;;;20.80;40.20;;;;;;5072957;28;20082;-60
2020/12/04 03:05:16;;;;;;;2.33;1.42;;;20.70;40.20;;;;;;5072766;28;20111;-63
2020/12/04 03:07:42;;;;;;;2.50;1.70;;;20.80;40.20;;;;;;5071552;28;20028;-63
2020/12/04 03:10:08;;;;;;;3.30;1.80;;;20.70;40.10;;;;;;5064784;28;20040;-64
2020/12/04 03:12:37;;;;;;;2.85;1.70;;;20.80;40.20;;;;;;5061278;28;20033;-64
2020/12/04 03:15:06;;;;;;;2.00;1.50;;;20.80;40.20;;;;;;5070673;28;20024;-65
2020/12/04 03:17:32;;;;;;;3.80;1.67;;;20.80;40.20;;;;;;5071749;28;20044;-63
2020/12/04 03:19:58;;;;;;;2.20;1.90;;;20.80;40.20;;;;;;5072257;28;20028;-64
2020/12/04 03:22:25;;;;;;;1.83;1.63;;;20.80;40.40;;;;;;5053403;28;20032;-59
2020/12/04 03:24:51;;;;;;;2.80;1.83;;;20.80;40.20;;;;;;5072147;28;20032;-64
2020/12/04 03:27:16;;;;;;;1.67;1.42;;;20.80;40.20;;;;;;5072035;28;20174;-63
2020/12/04 03:29:42;;;;;;;1.70;1.40;;;20.80;40.20;;;;;;5071119;28;20528;-65
2020/12/04 03:32:08;;;;;;;2.30;1.80;;;20.80;40.20;;;;;;5072104;28;20086;-60
2020/12/04 03:34:34;;;;;;;2.95;2.00;;;20.80;40.10;;;;;;5071094;28;20219;-63
2020/12/04 03:37:00;;;;;;;2.88;1.65;;;20.80;40.10;;;;;;5072126;28;20036;-64
2020/12/04 03:39:27;;;;;;;2.50;1.70;;;20.80;40.10;;;;;;5069907;28;20032;-64
2020/12/04 03:41:52;;;;;;;2.53;1.80;;;20.80;40.10;;;;;;5072043;28;20020;-64
2020/12/04 03:44:18;;;;;;;2.45;1.65;;;20.80;40.10;;;;;;5071709;28;20029;-64
2020/12/04 03:46:47;;;;;;;2.05;1.60;;;20.80;40.10;;;;;;5070438;28;20029;-62
2020/12/04 03:49:14;;;;;;;2.92;1.75;;;20.80;40.10;;;;;;5071576;28;20098;-65
2020/12/04 03:51:43;;;;;;;3.60;1.70;;;20.80;40.10;;;;;;5071012;28;20036;-60
2020/12/04 03:54:15;;;;;;;2.47;1.80;;;20.80;40.10;;;;;;5071218;28;20054;-64
2020/12/04 03:56:41;;;;;;;2.88;2.13;;;20.80;40.10;;;;;;5070762;28;20032;-63
2020/12/04 03:59:06;;;;;;;2.55;1.70;;;20.80;40.10;;;;;;5071606;28;20035;-64
2020/12/04 04:01:32;;;;;;;2.78;1.85;;;20.80;40.10;;;;;;5070456;28;20123;-65
2020/12/04 04:03:58;;;;;;;1.95;1.60;;;20.80;40.10;;;;;;5071247;28;20059;-64
2020/12/04 04:06:25;;;;;;;2.38;1.42;;;20.80;40.10;;;;;;5070518;28;20032;-60
2020/12/04 04:08:51;;;;;;;2.75;1.83;;;20.80;40.10;;;;;;5071106;28;20088;-61
2020/12/04 04:11:16;;;;;;;2.72;1.80;;;20.80;40.10;;;;;;5071309;28;20048;-62
2020/12/04 04:13:42;;;;;;;2.72;1.95;;;20.80;40.00;;;;;;5070707;28;20089;-64
2020/12/04 04:16:08;;;;;;;2.17;1.55;;;20.80;40.00;;;;;;5071324;28;20028;-64
2020/12/04 04:18:34;;;;;;;2.53;1.70;;;20.80;40.10;;;;;;5061918;28;20040;-64
2020/12/04 04:21:01;;;;;;;2.33;1.80;;;20.80;40.10;;;;;;5071007;28;20489;-64
2020/12/04 04:23:27;;;;;;;2.97;1.98;;;20.80;40.00;;;;;;5070062;28;20053;-59
2020/12/04 04:25:53;;;;;;;1.85;1.38;;;20.80;40.00;;;;;;5071060;28;20060;-65
2020/12/04 04:28:19;;;;;;;2.20;1.63;;;20.80;40.00;;;;;;5080559;28;20068;-64
2020/12/04 04:30:45;;;;;;;2.58;1.70;;;20.80;40.00;;;;;;5067520;28;20040;-64
2020/12/04 04:33:10;;;;;;;2.00;1.65;;;20.90;40.10;;;;;;5071091;28;20032;-65
2020/12/04 04:35:37;;;;;;;1.90;1.55;;;20.80;40.00;;;;;;5070700;28;20033;-65
2020/12/04 04:38:02;;;;;;;2.35;1.58;;;20.80;40.00;;;;;;5070281;28;20029;-65
2020/12/04 04:40:29;;;;;;;3.38;1.70;;;20.80;40.00;;;;;;5069996;28;20043;-61
2020/12/04 04:43:14;;;;;;;2.22;1.67;;;20.90;40.00;;;;;;5071089;28;20036;-64
2020/12/04 04:45:45;;;;;;;3.15;1.90;;;20.80;40.70;;;;;;5053240;28;20628;-63
2020/12/04 04:48:15;;;;;;;3.25;2.25;;;20.90;40.00;;;;;;5070519;28;20024;-64
2020/12/04 04:50:44;;;;;;;2.88;1.85;;;20.90;40.00;;;;;;5061482;28;20070;-64
2020/12/04 04:53:10;;;;;;;2.42;1.60;;;20.80;40.00;;;;;;5070516;28;20060;-62
2020/12/04 04:55:40;;;;;;;2.10;1.50;;;20.80;39.90;;;;;;5067888;28;20053;-64
2020/12/04 04:58:06;;;;;;;2.35;1.60;;;20.90;40.00;;;;;;5064351;28;20040;-66
2020/12/04 05:00:32;;;;;;;4.05;1.48;;;20.90;40.00;;;;;;5069607;28;20039;-66
2020/12/04 05:02:58;;;;;;;1.95;1.48;;;20.80;40.00;;;;;;5062074;28;20036;-65
2020/12/04 05:05:45;;;;;;;3.20;1.73;;;20.80;40.00;;;;;;5069523;28;20036;-59
2020/12/04 05:08:12;;;;;;;2.33;1.58;;;20.80;40.00;;;;;;5062812;28;20025;-62
2020/12/04 05:10:38;;;;;;;2.33;1.73;;;20.80;39.90;;;;;;5069476;28;20467;-64
2020/12/04 05:13:04;;;;;;;2.75;1.80;;;20.80;40.70;;;;;;5069942;28;20037;-65
2020/12/04 05:15:31;;;;;;;3.00;1.52;;;20.90;40.00;;;;;;5069568;28;20127;-66
2020/12/04 05:18:17;;;;;;;2.92;1.77;;;20.80;40.00;;;;;;5070268;28;20032;-62
2020/12/04 05:20:48;;;;;;;3.15;1.80;;;20.80;39.90;;;;;;5063749;28;20037;-65
2020/12/04 05:23:14;;;;;;;2.27;1.67;;;20.90;39.90;;;;;;5070076;28;20517;-65
2020/12/04 05:25:48;;;;;;;2.47;1.77;;;20.80;39.90;;;;;;5069069;28;20385;-64
2020/12/04 05:28:15;;;;;;;2.40;1.90;;;20.90;40.00;;;;;;5069480;28;20421;-64
2020/12/04 05:30:50;;;;;;;2.55;1.90;;;20.90;40.00;;;;;;5069440;28;20032;-64
2020/12/04 05:33:16;;;;;;;2.63;1.83;;;20.90;40.00;;;;;;5061832;28;20032;-64
2020/12/04 05:35:42;;;;;;;3.03;1.80;;;20.80;39.90;;;;;;5067995;28;20634;-57
2020/12/04 05:38:13;;;;;;;4.57;1.73;;;20.90;40.00;;;;;;5063079;28;20032;-61
2020/12/04 05:40:48;;;;;;;4.03;2.20;;;20.90;39.90;;;;;;5070671;28;20423;-64
2020/12/04 05:43:26;;;;;;;2.67;1.60;;;20.90;40.00;;;;;;5069946;28;20139;-64
2020/12/04 05:45:52;;;;;;;2.50;1.60;;;20.90;40.00;;;;;;5069962;28;20039;-62
2020/12/04 05:48:18;;;;;;;2.15;1.60;;;20.90;40.10;;;;;;5070040;28;20028;-64
2020/12/04 05:50:44;;;;;;;2.10;1.77;;;20.90;40.10;;;;;;5069266;28;20025;-61
2020/12/04 05:53:11;;;;;;;2.45;2.17;;;20.90;40.10;;;;;;5051953;28;20519;-63
2020/12/04 05:55:37;;;;;;;4.75;2.03;;;20.90;40.00;;;;;;5069018;28;20028;-63
2020/12/04 05:58:07;;;;;;;2.50;1.80;;;20.90;40.00;;;;;;5069868;28;20472;-64
2020/12/04 06:00:33;;;;;;;3.28;1.83;;;20.90;40.00;;;;;;5067364;28;20474;-64
2020/12/04 06:03:03;;;;;;;2.35;1.65;;;20.90;40.00;;;;;;5059913;28;20069;-65
2020/12/04 06:05:29;;;;;;;2.00;1.48;;;21.00;40.10;;;;;;5070409;28;20035;-63
2020/12/04 06:08:06;;;;;;;3.35;1.75;;;21.00;40.10;;;;;;5080971;28;20032;-61
2020/12/04 06:10:33;;;;;;;3.67;1.67;;;21.00;40.00;;;;;;5072785;28;20044;-61
2020/12/04 06:13:00;;;;;;;2.60;1.70;;;21.00;40.10;;;;;;5073340;28;20040;-63
2020/12/04 06:15:28;;;;;;;2.83;1.92;;;21.00;40.20;;;;;;5070869;28;20501;-61
2020/12/04 06:18:07;;;;;;;2.33;1.50;;;21.00;40.20;;;;;;5069962;28;20027;-63
2020/12/04 06:20:46;;;;;;;2.60;1.80;;;21.00;40.50;;;;;;5070291;28;20393;-63
2020/12/04 06:23:19;;;;;;;3.00;1.60;;;21.00;40.60;;;;;;5072291;28;20116;-63
2020/12/04 06:25:55;;;;;;;2.85;2.05;;;21.00;40.60;;;;;;5070580;28;20032;-63
2020/12/04 06:28:32;;;;;;;2.97;1.75;;;21.00;40.70;;;;;;5069972;28;20029;-56
2020/12/04 06:31:03;;;;;;;3.35;1.85;;;21.00;40.60;;;;;;5070042;28;20025;-63
2020/12/04 06:33:42;;;;;;;2.40;1.80;;;21.00;40.70;;;;;;5071041;28;20383;-63
2020/12/04 06:36:09;;;;;;;5.65;1.50;;;21.00;40.60;;;;;;5073037;28;20036;-59
2020/12/04 06:41:29;;;;;;;4.03;1.70;;;21.10;40.70;;;;;;5070829;28;20097;-61
2020/12/04 06:44:05;;;;;;;3.22;1.75;;;21.10;40.80;;;;;;5071302;28;20096;-65
2020/12/04 06:46:35;;;;;;;3.80;1.70;;;21.10;40.60;;;;;;5051645;28;20036;-59
2020/12/04 06:49:22;;;;;;;3.08;1.52;;;21.10;40.70;;;;;;5070012;28;20072;-62
2020/12/04 06:52:23;;;;;;;3.38;1.88;;;21.10;40.70;;;;;;5070257;28;20028;-60
2020/12/04 06:54:50;;;;;;;4.85;2.03;;;21.20;40.70;;;;;;5063224;28;20039;-68
2020/12/04 06:57:21;;;;;;;4.88;1.73;;;21.20;40.60;;;;;;5071223;28;20111;-70
2020/12/04 06:59:47;;;;;;;4.85;2.03;;;21.20;40.70;;;;;;5070450;28;20036;-65
2020/12/04 07:02:14;;;;;;;7.03;2.20;;;21.30;40.60;;;;;;5071649;28;20080;-64
2020/12/04 07:04:51;;;;;;;2.63;1.92;;;21.30;40.60;;;;;;5068779;28;20036;-60
2020/12/04 07:07:19;;;;;;;4.00;2.00;;;21.20;40.60;;;;;;5073100;28;20491;-61
2020/12/04 07:09:58;;;;;;;3.13;1.80;;;21.30;40.70;;;;;;5053907;28;20100;-62
2020/12/04 07:12:26;;;;;;;4.68;1.73;;;21.20;40.60;;;;;;5064667;28;20028;-58
2020/12/04 07:14:59;;;;;;;4.70;1.77;;;21.30;40.90;;;;;;5070017;28;20035;-62
2020/12/04 07:17:28;;;;;;;3.28;1.98;;;21.40;41.00;;;;;;5059583;28;20157;-61
2020/12/04 07:19:55;;;;;;;4.22;1.88;;;21.40;40.60;;;;;;5064794;28;20032;-64
2020/12/04 07:22:23;;;;;;;3.08;1.85;;;21.40;40.70;;;;;;5071963;28;20040;-62
2020/12/04 07:24:50;;;;;;;3.58;1.80;;;21.40;40.70;;;;;;5072034;28;20032;-62
2020/12/04 07:27:17;;;;;;;4.15;1.95;;;21.30;40.80;;;;;;5063530;28;20039;-62
2020/12/04 07:29:44;;;;;;;2.22;1.33;;;21.40;40.90;;;;;;5064183;28;20029;-62
2020/12/04 07:32:10;;;;;;;3.60;1.70;;;21.30;41.00;;;;;;5064054;28;20032;-61
2020/12/04 07:34:38;;;;;;;3.95;1.90;;;21.40;40.90;;;;;;5070948;28;20103;-63
2020/12/04 07:37:05;;;;;;;3.90;1.85;;;21.40;41.00;;;;;;5079808;28;20028;-61
2020/12/04 07:39:33;;;;;;;5.88;1.70;;;21.30;41.00;;;;;;5071187;28;20053;-62
2020/12/04 07:42:00;;;;;;;8.10;1.92;;;21.40;41.00;;;;;;5063457;28;20040;-62
2020/12/04 07:44:52;;;;;;;2.50;1.52;;;21.40;41.10;;;;;;5071085;28;20029;-59
2020/12/04 07:47:18;;;;;;;4.75;2.17;;;21.40;41.00;;;;;;5072026;28;20362;-62
2020/12/04 07:49:51;;;;;;;4.63;1.80;;;21.30;41.20;;;;;;5053156;28;20500;-61
2020/12/04 07:52:29;;;;;;;4.30;2.00;;;21.30;41.20;;;;;;5053676;28;20056;-61
2020/12/04 07:55:01;;;;;;;5.13;1.92;;;21.30;41.30;;;;;;5071433;28;20025;-63
2020/12/04 07:57:41;;;;;;;3.80;1.70;;;21.30;41.30;;;;;;5070106;28;20039;-61
2020/12/04 08:00:07;;;;;;;7.90;1.98;;;21.40;41.40;;;;;;5071566;28;20480;-61
2020/12/04 08:02:33;;;;;;;2.85;1.67;;;21.40;41.10;;;;;;5070194;28;20076;-61
2020/12/04 08:04:59;;;;;;;6.50;2.20;;;21.40;41.80;;;;;;5071581;28;20033;-61
2020/12/04 08:07:30;;;;;;;8.65;2.03;;;21.40;40.30;;;;;;5071422;28;20085;-60
2020/12/04 08:09:56;;;;;;;4.68;1.98;;;21.40;40.50;;;;;;5052030;28;20028;-62
2020/12/04 08:12:32;;;;;;;5.90;2.00;;;21.30;40.60;;;;;;5069458;28;20039;-56
2020/12/04 08:15:00;;;;;;;3.33;1.80;;;21.30;40.60;;;;;;5069668;28;20090;-61
2020/12/04 08:17:28;;;;;;;3.65;1.90;;;21.30;40.50;;;;;;5069659;28;20496;-58
2020/12/04 08:19:55;;;;;;;4.13;2.10;;;21.30;40.50;;;;;;5070326;28;20078;-62
2020/12/04 08:22:27;;;;;;;2.90;2.00;;;21.30;40.50;;;;;;5070384;28;20476;-60
2020/12/04 08:25:03;;;;;;;5.60;1.90;;;21.30;40.50;;;;;;5070833;28;20028;-61
2020/12/04 08:27:50;;;;;;;8.32;2.05;;;21.30;41.10;;;;;;5069814;28;20036;-60
2020/12/04 08:30:18;;;;;;;4.05;2.10;;;21.30;41.00;;;;;;5061818;28;20047;-63
2020/12/04 08:32:56;;;;;;;6.10;1.90;;;21.30;41.20;;;;;;5070057;28;20067;-61
2020/12/04 08:35:44;;;;;;;5.43;1.95;;;21.30;41.50;;;;;;5059605;28;20417;-58
2020/12/04 08:38:15;;;;;;;5.15;2.00;;;21.30;41.50;;;;;;5068861;28;20024;-61
2020/12/04 08:40:42;;;;;;;3.43;1.93;;;21.40;41.10;;;;;;5051015;28;20038;-61
2020/12/04 08:43:15;;;;;;;14.00;3.85;;;21.40;41.50;;;;;;5069114;28;20086;-62
2020/12/04 08:45:46;;;;;;;9.60;5.03;;;21.40;39.40;;;;;;5068671;28;20036;-61
2020/12/04 08:48:14;;;;;;;13.05;5.55;;;21.20;35.20;;;;;;5078236;28;20029;-60
2020/12/04 08:50:55;;;;;;;7.75;4.57;;;21.10;34.80;;;;;;5068210;28;20032;-63
2020/12/04 08:53:22;;;;;;;10.07;3.67;;;21.10;38.40;;;;;;5068385;28;20033;-66
2020/12/04 08:55:49;;;;;;;10.15;4.28;;;21.20;39.00;;;;;;5069931;28;20029;-65
2020/12/04 08:58:16;;;;;;;6.38;3.13;;;21.20;39.20;;;;;;5069422;28;20039;-67
2020/12/04 09:00:43;;;;;;;9.52;3.28;;;21.30;39.40;;;;;;5067871;28;20059;-66
2020/12/04 09:03:09;;;;;;;6.78;3.15;;;21.30;39.60;;;;;;5068853;28;20434;-68
2020/12/04 09:05:36;;;;;;;7.45;3.15;;;21.30;39.60;;;;;;5068405;28;20464;-74
2020/12/04 09:08:02;;;;;;;9.15;4.05;;;21.30;39.70;;;;;;5067904;28;20025;-63
2020/12/04 09:10:28;;;;;;;9.80;3.28;;;21.30;39.70;;;;;;5066478;28;20047;-62
2020/12/04 09:12:56;;;;;;;5.32;2.80;;;21.30;39.70;;;;;;5068521;28;20028;-61
2020/12/04 09:15:23;;;;;;;6.13;2.70;;;21.40;40.10;;;;;;5068977;28;20029;-59
2020/12/04 09:17:49;;;;;;;6.35;2.75;;;21.40;39.90;;;;;;5069894;28;20063;-61
2020/12/04 09:20:15;;;;;;;7.20;2.78;;;21.40;40.10;;;;;;5072108;28;20024;-60
2020/12/04 09:22:42;;;;;;;8.38;2.50;;;21.40;40.20;;;;;;5073112;28;20039;-61
2020/12/04 09:25:10;;;;;;;4.72;2.50;;;21.40;40.00;;;;;;5070269;28;20328;-61
2020/12/04 09:27:36;;;;;;;6.43;2.70;;;21.40;40.00;;;;;;5061347;28;20028;-61
2020/12/04 09:30:07;;;;;;;5.50;2.53;;;21.40;40.00;;;;;;5051641;28;20396;-60
2020/12/04 09:32:33;;;;;;;7.38;2.85;;;21.40;39.90;;;;;;5067855;28;20064;-62
2020/12/04 09:34:59;;;;;;;5.93;2.35;;;21.40;39.90;;;;;;5068277;28;20064;-61
2020/12/04 09:37:35;;;;;;;5.50;2.75;;;21.40;39.90;;;;;;5073765;28;20094;-58
2020/12/04 09:40:14;;;;;;;5.18;2.17;;;21.40;39.80;;;;;;5072594;28;20032;-61
2020/12/04 09:42:40;;;;;;;8.55;2.50;;;21.40;40.50;;;;;;5068173;28;20032;-61
2020/12/04 09:45:08;;;;;;;7.55;2.30;;;21.40;39.80;;;;;;5065868;28;20400;-60
2020/12/04 09:47:36;;;;;;;6.63;2.50;;;21.40;39.70;;;;;;5069291;28;20024;-62
2020/12/04 09:50:05;;;;;;;5.03;2.50;;;21.40;40.00;;;;;;5060519;28;20028;-61
2020/12/04 09:52:31;;;;;;;5.47;2.15;;;21.40;40.00;;;;;;5069839;28;20117;-60
2020/12/04 09:54:57;;;;;;;6.63;2.40;;;21.50;40.30;;;;;;5069847;28;20109;-61
2020/12/04 09:57:23;;;;;;;5.63;2.17;;;21.50;40.20;;;;;;5077759;28;20033;-60
2020/12/04 09:59:49;;;;;;;9.57;2.67;;;21.50;40.30;;;;;;5071298;28;20060;-60
2020/12/04 10:02:15;;;;;;;6.18;2.95;;;21.50;40.30;;;;;;5070358;28;20080;-60
2020/12/04 10:04:41;;;;;;;4.20;2.50;;;21.50;40.50;;;;;;5068625;28;20066;-60
2020/12/04 10:07:08;;;;;;;6.55;2.50;;;21.50;40.40;;;;;;5071699;28;20086;-59
2020/12/04 10:09:34;;;;;;;8.20;2.47;;;21.40;40.50;;;;;;5042675;28;20075;-59
2020/12/04 10:12:00;;;;;;;7.32;2.20;;;21.40;40.70;;;;;;5072847;28;20033;-60
2020/12/04 10:14:26;;;;;;;6.07;2.22;;;21.40;40.70;;;;;;5070693;28;20082;-58
2020/12/04 10:16:52;;;;;;;6.20;2.10;;;21.40;40.70;;;;;;5061691;28;20025;-60
2020/12/04 10:19:19;;;;;;;7.60;2.70;;;21.40;40.60;;;;;;5074366;28;20067;-60
2020/12/04 10:21:46;;;;;;;8.05;2.50;;;21.50;40.60;;;;;;5066942;28;20112;-59
2020/12/04 10:24:14;;;;;;;7.57;2.65;;;21.40;40.70;;;;;;5052393;28;20040;-60
2020/12/04 10:26:41;;;;;;;4.30;2.28;;;21.40;40.60;;;;;;5068591;28;20119;-59
2020/12/04 10:29:08;;;;;;;4.30;2.50;;;21.40;40.70;;;;;;5069852;28;20028;-59
2020/12/04 10:31:34;;;;;;;8.45;2.35;;;21.40;40.50;;;;;;5069597;28;20051;-59
2020/12/04 10:34:00;;;;;;;5.55;2.30;;;21.40;40.50;;;;;;5073549;28;20041;-59
2020/12/04 10:36:27;;;;;;;4.20;1.95;;;21.40;40.40;;;;;;5066269;28;20082;-56
2020/12/04 10:38:59;;;;;;;5.55;2.53;;;21.40;40.50;;;;;;5066322;28;20382;-59
2020/12/04 10:41:33;;;;;;;8.93;2.25;;;21.40;40.40;;;;;;5069114;28;20047;-57
2020/12/04 10:43:59;;;;;;;8.38;2.00;;;21.40;40.30;;;;;;5078359;28;20036;-59
2020/12/04 10:46:26;;;;;;;4.15;2.15;;;21.40;40.30;;;;;;5057611;28;20029;-57
2020/12/04 10:48:52;;;;;;;6.53;2.17;;;21.40;40.30;;;;;;5070092;28;20070;-61
2020/12/04 10:51:21;;;;;;;4.70;2.55;;;21.40;40.30;;;;;;5055521;28;20028;-61
2020/12/04 10:53:47;;;;;;;5.82;2.97;;;21.40;40.80;;;;;;5070762;28;20568;-60
2020/12/04 10:56:16;;;;;;;5.05;1.90;;;21.40;40.20;;;;;;5065392;28;20043;-61
2020/12/04 10:58:42;;;;;;;5.43;2.15;;;21.40;40.20;;;;;;5053837;28;20567;-61
2020/12/04 11:01:11;;;;;;;6.57;2.35;;;21.40;40.20;;;;;;5072614;28;20048;-64
2020/12/04 11:06:06;;;;;;;4.88;2.00;;;21.30;40.20;;;;;;5072853;28;20025;-59
2020/12/04 11:08:31;;;;;;;6.70;2.10;;;21.30;40.20;;;;;;5071589;28;20025;-60
2020/12/04 11:10:57;;;;;;;8.07;2.95;;;21.30;40.10;;;;;;5072642;28;20473;-60
2020/12/04 11:13:23;;;;;;;8.25;2.80;;;21.30;40.20;;;;;;5076384;28;20473;-60
2020/12/04 11:15:48;;;;;;;9.20;2.15;;;21.30;40.10;;;;;;5063508;28;20032;-60
2020/12/04 11:18:14;;;;;;;7.07;2.45;;;21.30;40.50;;;;;;5072535;28;20024;-63
2020/12/04 11:20:40;;;;;;;17.02;3.30;;;21.40;40.30;;;;;;5070845;28;20043;-56
2020/12/04 11:23:05;;;;;;;11.10;2.85;;;21.40;40.60;;;;;;5072194;28;21676;-62
2020/12/04 11:25:33;;;;;;;9.02;2.47;;;21.40;40.50;;;;;;5071904;28;20086;-60
2020/12/04 11:27:58;;;;;;;9.20;2.60;;;21.40;40.80;;;;;;5075145;28;20053;-66
2020/12/04 11:30:24;;;;;;;10.90;2.67;;;21.40;40.80;;;;;;5078064;28;20472;-64
2020/12/04 11:32:51;;;;;;;6.47;2.60;;;21.40;41.90;;;;;;5082171;28;20082;-64
2020/12/04 11:35:19;;;;;;;6.20;2.38;;;21.30;41.30;;;;;;5070479;28;20032;-62
2020/12/04 11:37:47;;;;;;;8.20;2.90;;;21.30;41.40;;;;;;5072882;28;20028;-60
2020/12/04 11:40:15;;;;;;;12.57;2.53;;;21.30;41.40;;;;;;5052212;28;20031;-55
2020/12/04 11:42:43;;;;;;;8.30;2.38;;;21.30;41.60;;;;;;5068566;28;20489;-61
2020/12/04 11:45:11;;;;;;;6.90;2.20;;;21.30;41.60;;;;;;5075707;28;20028;-63
2020/12/04 11:47:38;;;;;;;8.27;2.65;;;21.30;41.60;;;;;;5076670;28;20035;-63
2020/12/04 11:50:09;;;;;;;5.28;2.70;;;21.30;41.60;;;;;;5053530;28;20028;-62
2020/12/04 11:52:35;;;;;;;6.05;2.53;;;21.30;42.20;;;;;;5077921;28;20095;-63
2020/12/04 11:55:02;;;;;;;6.22;2.45;;;21.30;41.60;;;;;;5073888;28;20841;-63
2020/12/04 11:57:28;;;;;;;5.47;2.45;;;21.30;41.60;;;;;;5077643;28;20132;-57
2020/12/04 11:59:54;;;;;;;4.65;2.35;;;21.30;41.50;;;;;;5068557;28;20054;-57
2020/12/04 12:02:20;;;;;;;8.77;2.47;;;21.30;41.60;;;;;;5071375;28;20456;-62
2020/12/04 12:04:45;;;;;;;8.20;2.80;;;21.30;41.50;;;;;;5071799;28;20032;-62
2020/12/04 12:07:11;;;;;;;5.90;2.92;;;21.30;41.50;;;;;;5071016;28;20024;-62
2020/12/04 12:09:37;;;;;;;5.20;2.30;;;21.30;41.50;;;;;;5070328;28;20033;-62
2020/12/04 12:12:03;;;;;;;6.00;2.42;;;21.30;41.50;;;;;;5070693;28;20024;-62
2020/12/04 12:14:29;;;;;;;8.65;2.78;;;21.30;41.50;;;;;;5071701;28;20048;-55
2020/12/04 12:16:55;;;;;;;4.40;2.80;;;21.30;41.50;;;;;;5066331;28;20036;-61
2020/12/04 12:19:21;;;;;;;4.70;2.40;;;21.30;41.50;;;;;;5070779;28;20021;-62
2020/12/04 12:21:48;;;;;;;5.03;2.20;;;21.30;41.50;;;;;;5073852;28;20024;-58
2020/12/04 12:24:14;;;;;;;7.05;2.80;;;21.30;41.50;;;;;;5074022;28;20063;-62
2020/12/04 12:26:40;;;;;;;5.57;2.42;;;21.30;41.60;;;;;;5069876;28;20020;-64
2020/12/04 12:29:05;;;;;;;5.50;2.45;;;21.30;41.50;;;;;;5074137;28;20164;-66
2020/12/04 12:31:31;;;;;;;6.70;2.47;;;21.40;41.70;;;;;;5070053;28;20071;-65
2020/12/04 12:33:57;;;;;;;5.55;2.65;;;21.40;41.70;;;;;;5066409;28;20056;-61
2020/12/04 12:36:24;;;;;;;7.97;2.50;;;21.50;41.90;;;;;;5071148;28;20074;-57
2020/12/04 12:38:53;;;;;;;6.93;2.38;;;21.50;42.10;;;;;;5070290;28;20028;-62
2020/12/04 12:41:19;;;;;;;5.68;2.38;;;21.50;42.10;;;;;;5069293;28;20059;-56
2020/12/04 12:43:45;;;;;;;12.65;3.10;;;21.40;41.60;;;;;;5069743;28;20039;-59
2020/12/04 12:46:11;;;;;;;7.95;3.47;;;21.30;40.40;;;;;;5070635;28;20028;-57
2020/12/04 12:48:36;;;;;;;8.80;2.60;;;21.30;41.70;;;;;;5069196;28;20031;-57
2020/12/04 12:51:02;;;;;;;9.70;2.20;;;21.30;41.80;;;;;;5072021;28;20062;-55
2020/12/04 12:53:28;;;;;;;7.45;2.78;;;21.30;42.00;;;;;;5072625;28;20085;-52
2020/12/04 12:55:54;;;;;;;18.08;3.58;;;21.30;41.80;;;;;;5085662;28;20020;-49